sensor_id;sensor_type;location;lat;lon;timestamp;temperature;humidity
50955;DHT22;36966;48.064;-0.792;2023-07-20T00:00:12;24.30;46.90
50955;DHT22;36966;48.064;-0.792;2023-07-20T00:02:32;24.40;46.90
50955;DHT22;36966;48.064;-0.792;2023-07-20T00:04:52;24.30;47.00
50955;DHT22;36966;48.064;-0.792;2023-07-20T00:07:11;24.30;46.90
50955;DHT22;36966;48.064;-0.792;2023-07-20T00:09:30;24.30;47.00
50955;DHT22;36966;48.064;-0.792;2023-07-20T00:11:50;24.30;46.90
50955;DHT22;36966;48.064;-0.792;2023-07-20T00:14:10;24.30;47.00
50955;DHT22;36966;48.064;-0.792;2023-07-20T00:16:29;24.30;47.00
50955;DHT22;36966;48.064;-0.792;2023-07-20T00:18:48;24.30;47.00
50955;DHT22;36966;48.064;-0.792;2023-07-20T00:21:07;24.30;47.00
50955;DHT22;36966;48.064;-0.792;2023-07-20T00:23:27;24.30;47.10
50955;DHT22;36966;48.064;-0.792;2023-07-20T00:25:46;24.20;47.10
50955;DHT22;36966;48.064;-0.792;2023-07-20T00:28:06;24.20;47.10
50955;DHT22;36966;48.064;-0.792;2023-07-20T00:30:25;24.20;47.10
50955;DHT22;36966;48.064;-0.792;2023-07-20T00:32:44;24.30;47.20
50955;DHT22;36966;48.064;-0.792;2023-07-20T00:35:04;24.20;47.10
50955;DHT22;36966;48.064;-0.792;2023-07-20T00:37:23;24.20;47.10
50955;DHT22;36966;48.064;-0.792;2023-07-20T00:39:42;24.20;47.20
50955;DHT22;36966;48.064;-0.792;2023-07-20T00:42:01;24.20;47.20
50955;DHT22;36966;48.064;-0.792;2023-07-20T00:44:20;24.20;47.20
50955;DHT22;36966;48.064;-0.792;2023-07-20T00:46:40;24.30;47.20
50955;DHT22;36966;48.064;-0.792;2023-07-20T00:49:00;24.20;47.20
50955;DHT22;36966;48.064;-0.792;2023-07-20T00:51:20;24.20;47.20
50955;DHT22;36966;48.064;-0.792;2023-07-20T00:53:40;24.20;47.30
50955;DHT22;36966;48.064;-0.792;2023-07-20T00:55:59;24.20;47.30
50955;DHT22;36966;48.064;-0.792;2023-07-20T00:58:18;24.20;47.30
50955;DHT22;36966;48.064;-0.792;2023-07-20T01:00:38;24.20;47.30
50955;DHT22;36966;48.064;-0.792;2023-07-20T01:02:57;24.20;47.30
50955;DHT22;36966;48.064;-0.792;2023-07-20T01:05:16;24.20;47.30
50955;DHT22;36966;48.064;-0.792;2023-07-20T01:07:37;24.20;47.40
50955;DHT22;36966;48.064;-0.792;2023-07-20T01:12:40;24.20;47.40
50955;DHT22;36966;48.064;-0.792;2023-07-20T01:15:00;24.20;47.40
50955;DHT22;36966;48.064;-0.792;2023-07-20T01:17:19;24.20;47.40
50955;DHT22;36966;48.064;-0.792;2023-07-20T01:19:39;24.10;47.50
50955;DHT22;36966;48.064;-0.792;2023-07-20T01:22:20;24.10;47.60
50955;DHT22;36966;48.064;-0.792;2023-07-20T01:25:04;24.10;47.60
50955;DHT22;36966;48.064;-0.792;2023-07-20T01:32:43;24.10;47.60
50955;DHT22;36966;48.064;-0.792;2023-07-20T01:35:03;24.10;47.60
50955;DHT22;36966;48.064;-0.792;2023-07-20T01:37:24;24.10;47.70
50955;DHT22;36966;48.064;-0.792;2023-07-20T01:39:46;24.10;47.70
50955;DHT22;36966;48.064;-0.792;2023-07-20T01:42:05;24.10;47.70
50955;DHT22;36966;48.064;-0.792;2023-07-20T01:44:25;24.10;47.70
50955;DHT22;36966;48.064;-0.792;2023-07-20T01:46:46;24.10;47.80
50955;DHT22;36966;48.064;-0.792;2023-07-20T01:49:05;24.10;47.80
50955;DHT22;36966;48.064;-0.792;2023-07-20T01:51:24;24.00;47.70
50955;DHT22;36966;48.064;-0.792;2023-07-20T01:53:44;24.10;47.80
50955;DHT22;36966;48.064;-0.792;2023-07-20T01:56:03;24.10;47.80
50955;DHT22;36966;48.064;-0.792;2023-07-20T01:58:22;24.00;47.80
50955;DHT22;36966;48.064;-0.792;2023-07-20T02:00:42;24.00;47.80
50955;DHT22;36966;48.064;-0.792;2023-07-20T02:03:01;24.00;47.90
50955;DHT22;36966;48.064;-0.792;2023-07-20T02:05:20;24.00;47.90
50955;DHT22;36966;48.064;-0.792;2023-07-20T02:07:40;24.00;47.90
50955;DHT22;36966;48.064;-0.792;2023-07-20T02:09:59;24.00;47.90
50955;DHT22;36966;48.064;-0.792;2023-07-20T02:12:18;24.00;47.90
50955;DHT22;36966;48.064;-0.792;2023-07-20T02:14:37;24.00;47.90
50955;DHT22;36966;48.064;-0.792;2023-07-20T02:16:56;24.00;47.90
50955;DHT22;36966;48.064;-0.792;2023-07-20T02:19:18;24.00;48.00
50955;DHT22;36966;48.064;-0.792;2023-07-20T02:21:38;24.00;47.90
50955;DHT22;36966;48.064;-0.792;2023-07-20T02:23:58;24.00;47.90
50955;DHT22;36966;48.064;-0.792;2023-07-20T02:26:17;24.00;47.90
50955;DHT22;36966;48.064;-0.792;2023-07-20T02:28:36;24.00;47.90
50955;DHT22;36966;48.064;-0.792;2023-07-20T02:30:55;24.00;48.00
50955;DHT22;36966;48.064;-0.792;2023-07-20T02:33:15;23.90;48.00
50955;DHT22;36966;48.064;-0.792;2023-07-20T02:35:34;24.00;48.00
50955;DHT22;36966;48.064;-0.792;2023-07-20T02:37:53;24.00;48.00
50955;DHT22;36966;48.064;-0.792;2023-07-20T02:40:12;24.00;48.00
50955;DHT22;36966;48.064;-0.792;2023-07-20T02:42:31;23.90;48.00
50955;DHT22;36966;48.064;-0.792;2023-07-20T02:44:51;23.90;48.10
50955;DHT22;36966;48.064;-0.792;2023-07-20T02:47:11;23.90;48.10
50955;DHT22;36966;48.064;-0.792;2023-07-20T02:49:30;23.90;48.10
50955;DHT22;36966;48.064;-0.792;2023-07-20T02:51:50;23.90;48.10
50955;DHT22;36966;48.064;-0.792;2023-07-20T02:54:09;23.90;48.10
50955;DHT22;36966;48.064;-0.792;2023-07-20T02:56:28;23.90;48.10
50955;DHT22;36966;48.064;-0.792;2023-07-20T02:58:47;23.90;48.10
50955;DHT22;36966;48.064;-0.792;2023-07-20T03:01:07;23.90;48.10
50955;DHT22;36966;48.064;-0.792;2023-07-20T03:03:27;23.90;48.10
50955;DHT22;36966;48.064;-0.792;2023-07-20T03:05:46;23.90;48.10
50955;DHT22;36966;48.064;-0.792;2023-07-20T03:08:05;23.90;48.10
50955;DHT22;36966;48.064;-0.792;2023-07-20T03:10:25;23.90;48.10
50955;DHT22;36966;48.064;-0.792;2023-07-20T03:12:44;23.90;48.10
50955;DHT22;36966;48.064;-0.792;2023-07-20T03:15:04;23.90;48.20
50955;DHT22;36966;48.064;-0.792;2023-07-20T03:17:24;23.80;48.10
50955;DHT22;36966;48.064;-0.792;2023-07-20T03:19:43;23.80;48.20
50955;DHT22;36966;48.064;-0.792;2023-07-20T03:22:02;23.80;48.10
50955;DHT22;36966;48.064;-0.792;2023-07-20T03:24:21;23.80;48.10
50955;DHT22;36966;48.064;-0.792;2023-07-20T03:26:43;23.90;48.20
50955;DHT22;36966;48.064;-0.792;2023-07-20T03:29:02;23.80;48.10
50955;DHT22;36966;48.064;-0.792;2023-07-20T03:31:21;23.80;48.10
50955;DHT22;36966;48.064;-0.792;2023-07-20T03:33:41;23.80;48.10
50955;DHT22;36966;48.064;-0.792;2023-07-20T03:36:01;23.80;48.10
50955;DHT22;36966;48.064;-0.792;2023-07-20T03:38:20;23.80;48.10
50955;DHT22;36966;48.064;-0.792;2023-07-20T03:40:48;23.80;48.10
50955;DHT22;36966;48.064;-0.792;2023-07-20T03:43:07;23.80;48.10
50955;DHT22;36966;48.064;-0.792;2023-07-20T03:45:26;23.80;48.10
50955;DHT22;36966;48.064;-0.792;2023-07-20T03:47:46;23.80;48.10
50955;DHT22;36966;48.064;-0.792;2023-07-20T03:50:07;23.80;48.10
50955;DHT22;36966;48.064;-0.792;2023-07-20T03:52:29;23.80;48.10
50955;DHT22;36966;48.064;-0.792;2023-07-20T03:54:49;23.80;48.10
50955;DHT22;36966;48.064;-0.792;2023-07-20T03:57:10;23.80;48.10
50955;DHT22;36966;48.064;-0.792;2023-07-20T03:59:29;23.80;48.10
50955;DHT22;36966;48.064;-0.792;2023-07-20T04:01:48;23.70;48.10
50955;DHT22;36966;48.064;-0.792;2023-07-20T04:04:07;23.80;48.10
50955;DHT22;36966;48.064;-0.792;2023-07-20T04:06:27;23.70;48.10
50955;DHT22;36966;48.064;-0.792;2023-07-20T04:08:46;23.70;48.10
50955;DHT22;36966;48.064;-0.792;2023-07-20T04:11:06;23.70;48.10
50955;DHT22;36966;48.064;-0.792;2023-07-20T04:13:25;23.70;48.10
50955;DHT22;36966;48.064;-0.792;2023-07-20T04:15:45;23.70;48.10
50955;DHT22;36966;48.064;-0.792;2023-07-20T04:18:04;23.70;48.20
50955;DHT22;36966;48.064;-0.792;2023-07-20T04:20:24;23.70;48.10
50955;DHT22;36966;48.064;-0.792;2023-07-20T04:22:43;23.70;48.20
50955;DHT22;36966;48.064;-0.792;2023-07-20T04:25:03;23.70;48.20
50955;DHT22;36966;48.064;-0.792;2023-07-20T04:27:22;23.70;48.30
50955;DHT22;36966;48.064;-0.792;2023-07-20T04:29:41;23.70;48.30
50955;DHT22;36966;48.064;-0.792;2023-07-20T04:32:01;23.70;48.30
50955;DHT22;36966;48.064;-0.792;2023-07-20T04:34:20;23.70;48.40
50955;DHT22;36966;48.064;-0.792;2023-07-20T04:36:39;23.70;48.40
50955;DHT22;36966;48.064;-0.792;2023-07-20T04:38:58;23.70;48.50
50955;DHT22;36966;48.064;-0.792;2023-07-20T04:41:17;23.70;48.50
50955;DHT22;36966;48.064;-0.792;2023-07-20T04:43:37;23.70;48.50
50955;DHT22;36966;48.064;-0.792;2023-07-20T04:45:59;23.70;48.50
50955;DHT22;36966;48.064;-0.792;2023-07-20T04:48:18;23.70;48.60
50955;DHT22;36966;48.064;-0.792;2023-07-20T04:50:38;23.70;48.60
50955;DHT22;36966;48.064;-0.792;2023-07-20T04:52:59;23.70;48.60
50955;DHT22;36966;48.064;-0.792;2023-07-20T04:55:19;23.70;48.70
50955;DHT22;36966;48.064;-0.792;2023-07-20T04:57:38;23.70;48.80
50955;DHT22;36966;48.064;-0.792;2023-07-20T04:59:58;23.70;48.80
50955;DHT22;36966;48.064;-0.792;2023-07-20T05:02:17;23.70;48.80
50955;DHT22;36966;48.064;-0.792;2023-07-20T05:04:36;23.70;48.80
50955;DHT22;36966;48.064;-0.792;2023-07-20T05:06:55;23.70;48.90
50955;DHT22;36966;48.064;-0.792;2023-07-20T05:09:15;23.70;48.80
50955;DHT22;36966;48.064;-0.792;2023-07-20T05:11:34;23.70;48.90
50955;DHT22;36966;48.064;-0.792;2023-07-20T05:13:53;23.70;48.90
50955;DHT22;36966;48.064;-0.792;2023-07-20T05:16:13;23.70;48.90
50955;DHT22;36966;48.064;-0.792;2023-07-20T05:18:32;23.70;49.00
50955;DHT22;36966;48.064;-0.792;2023-07-20T05:20:52;23.70;49.10
50955;DHT22;36966;48.064;-0.792;2023-07-20T05:23:11;23.70;49.00
50955;DHT22;36966;48.064;-0.792;2023-07-20T05:25:30;23.80;49.00
50955;DHT22;36966;48.064;-0.792;2023-07-20T05:27:50;23.80;49.00
50955;DHT22;36966;48.064;-0.792;2023-07-20T05:30:09;23.80;49.00
50955;DHT22;36966;48.064;-0.792;2023-07-20T05:32:28;23.80;49.00
50955;DHT22;36966;48.064;-0.792;2023-07-20T05:34:51;23.70;49.00
50955;DHT22;36966;48.064;-0.792;2023-07-20T05:37:10;23.80;49.10
50955;DHT22;36966;48.064;-0.792;2023-07-20T05:39:29;23.80;49.10
50955;DHT22;36966;48.064;-0.792;2023-07-20T05:41:51;23.80;49.10
50955;DHT22;36966;48.064;-0.792;2023-07-20T05:44:10;23.80;49.10
50955;DHT22;36966;48.064;-0.792;2023-07-20T05:46:29;23.80;49.10
50955;DHT22;36966;48.064;-0.792;2023-07-20T05:48:49;23.70;49.20
50955;DHT22;36966;48.064;-0.792;2023-07-20T05:51:08;23.70;49.10
50955;DHT22;36966;48.064;-0.792;2023-07-20T05:53:27;23.70;49.20
50955;DHT22;36966;48.064;-0.792;2023-07-20T05:55:51;23.80;49.20
50955;DHT22;36966;48.064;-0.792;2023-07-20T05:58:10;23.80;49.20
50955;DHT22;36966;48.064;-0.792;2023-07-20T06:00:29;23.80;49.30
50955;DHT22;36966;48.064;-0.792;2023-07-20T06:02:49;23.80;49.30
50955;DHT22;36966;48.064;-0.792;2023-07-20T06:05:08;23.80;49.30
50955;DHT22;36966;48.064;-0.792;2023-07-20T06:07:31;23.70;49.30
50955;DHT22;36966;48.064;-0.792;2023-07-20T06:09:51;23.70;49.30
50955;DHT22;36966;48.064;-0.792;2023-07-20T06:12:10;23.70;49.30
50955;DHT22;36966;48.064;-0.792;2023-07-20T06:14:30;23.70;49.30
50955;DHT22;36966;48.064;-0.792;2023-07-20T06:16:50;23.70;49.40
50955;DHT22;36966;48.064;-0.792;2023-07-20T06:19:09;23.70;49.40
50955;DHT22;36966;48.064;-0.792;2023-07-20T06:21:31;23.70;49.40
50955;DHT22;36966;48.064;-0.792;2023-07-20T06:23:50;23.80;49.40
50955;DHT22;36966;48.064;-0.792;2023-07-20T06:26:10;23.70;49.50
50955;DHT22;36966;48.064;-0.792;2023-07-20T06:28:29;23.80;49.50
50955;DHT22;36966;48.064;-0.792;2023-07-20T06:30:48;23.80;49.50
50955;DHT22;36966;48.064;-0.792;2023-07-20T06:33:08;23.70;49.50
50955;DHT22;36966;48.064;-0.792;2023-07-20T06:35:27;23.70;49.50
50955;DHT22;36966;48.064;-0.792;2023-07-20T06:37:46;23.80;49.50
50955;DHT22;36966;48.064;-0.792;2023-07-20T06:40:05;23.70;49.60
50955;DHT22;36966;48.064;-0.792;2023-07-20T06:42:25;23.80;49.50
50955;DHT22;36966;48.064;-0.792;2023-07-20T06:44:44;23.70;49.60
50955;DHT22;36966;48.064;-0.792;2023-07-20T06:47:04;23.70;49.60
50955;DHT22;36966;48.064;-0.792;2023-07-20T06:49:24;23.80;49.60
50955;DHT22;36966;48.064;-0.792;2023-07-20T06:51:44;23.80;49.60
50955;DHT22;36966;48.064;-0.792;2023-07-20T06:54:03;23.80;49.70
50955;DHT22;36966;48.064;-0.792;2023-07-20T06:56:23;23.80;49.70
50955;DHT22;36966;48.064;-0.792;2023-07-20T06:58:43;23.80;49.70
50955;DHT22;36966;48.064;-0.792;2023-07-20T07:01:06;23.80;49.70
50955;DHT22;36966;48.064;-0.792;2023-07-20T07:03:26;23.80;49.70
50955;DHT22;36966;48.064;-0.792;2023-07-20T07:05:45;23.80;49.70
50955;DHT22;36966;48.064;-0.792;2023-07-20T07:08:05;23.80;49.80
50955;DHT22;36966;48.064;-0.792;2023-07-20T07:10:24;23.80;49.80
50955;DHT22;36966;48.064;-0.792;2023-07-20T07:12:44;23.80;49.80
50955;DHT22;36966;48.064;-0.792;2023-07-20T07:15:04;23.80;49.80
50955;DHT22;36966;48.064;-0.792;2023-07-20T07:17:25;23.80;49.80
50955;DHT22;36966;48.064;-0.792;2023-07-20T07:19:44;23.80;49.80
50955;DHT22;36966;48.064;-0.792;2023-07-20T07:22:04;23.80;49.90
50955;DHT22;36966;48.064;-0.792;2023-07-20T07:24:23;23.80;49.90
50955;DHT22;36966;48.064;-0.792;2023-07-20T07:26:43;23.80;49.90
50955;DHT22;36966;48.064;-0.792;2023-07-20T07:29:03;23.80;49.90
50955;DHT22;36966;48.064;-0.792;2023-07-20T07:31:22;23.80;50.00
50955;DHT22;36966;48.064;-0.792;2023-07-20T07:33:42;23.80;49.90
50955;DHT22;36966;48.064;-0.792;2023-07-20T07:36:02;23.80;49.90
50955;DHT22;36966;48.064;-0.792;2023-07-20T07:38:21;23.80;49.90
50955;DHT22;36966;48.064;-0.792;2023-07-20T07:40:40;23.80;49.90
50955;DHT22;36966;48.064;-0.792;2023-07-20T07:43:00;23.80;49.90
50955;DHT22;36966;48.064;-0.792;2023-07-20T07:45:19;23.80;49.90
50955;DHT22;36966;48.064;-0.792;2023-07-20T07:47:38;23.80;49.90
50955;DHT22;36966;48.064;-0.792;2023-07-20T07:49:58;23.80;49.90
50955;DHT22;36966;48.064;-0.792;2023-07-20T07:54:46;23.80;49.90
50955;DHT22;36966;48.064;-0.792;2023-07-20T07:57:06;23.80;50.00
50955;DHT22;36966;48.064;-0.792;2023-07-20T07:59:25;23.90;50.00
50955;DHT22;36966;48.064;-0.792;2023-07-20T08:01:44;23.90;50.00
50955;DHT22;36966;48.064;-0.792;2023-07-20T08:04:04;23.90;50.00
50955;DHT22;36966;48.064;-0.792;2023-07-20T08:06:23;23.80;50.00
50955;DHT22;36966;48.064;-0.792;2023-07-20T08:08:43;23.90;50.10
50955;DHT22;36966;48.064;-0.792;2023-07-20T08:11:03;23.90;50.20
50955;DHT22;36966;48.064;-0.792;2023-07-20T08:13:23;23.90;50.30
50955;DHT22;36966;48.064;-0.792;2023-07-20T08:15:48;23.90;50.30
50955;DHT22;36966;48.064;-0.792;2023-07-20T08:18:08;23.90;50.40
50955;DHT22;36966;48.064;-0.792;2023-07-20T08:20:27;23.90;50.40
50955;DHT22;36966;48.064;-0.792;2023-07-20T08:22:46;23.90;50.40
50955;DHT22;36966;48.064;-0.792;2023-07-20T08:25:06;23.90;50.40
50955;DHT22;36966;48.064;-0.792;2023-07-20T08:27:25;24.00;50.50
50955;DHT22;36966;48.064;-0.792;2023-07-20T08:29:44;24.00;50.50
50955;DHT22;36966;48.064;-0.792;2023-07-20T08:32:04;24.10;50.70
50955;DHT22;36966;48.064;-0.792;2023-07-20T08:34:23;24.10;50.70
50955;DHT22;36966;48.064;-0.792;2023-07-20T08:36:43;24.10;50.70
50955;DHT22;36966;48.064;-0.792;2023-07-20T08:39:02;24.20;50.70
50955;DHT22;36966;48.064;-0.792;2023-07-20T08:41:22;24.20;50.70
50955;DHT22;36966;48.064;-0.792;2023-07-20T08:43:42;24.20;50.70
50955;DHT22;36966;48.064;-0.792;2023-07-20T08:46:02;24.30;50.70
50955;DHT22;36966;48.064;-0.792;2023-07-20T08:48:22;24.30;50.60
50955;DHT22;36966;48.064;-0.792;2023-07-20T08:50:41;24.30;50.60
50955;DHT22;36966;48.064;-0.792;2023-07-20T08:53:02;24.30;50.50
50955;DHT22;36966;48.064;-0.792;2023-07-20T08:55:22;24.30;50.40
50955;DHT22;36966;48.064;-0.792;2023-07-20T08:57:42;24.40;50.40
50955;DHT22;36966;48.064;-0.792;2023-07-20T09:00:03;24.30;50.30
50955;DHT22;36966;48.064;-0.792;2023-07-20T09:02:28;24.40;50.30
50955;DHT22;36966;48.064;-0.792;2023-07-20T09:04:48;24.40;50.40
50955;DHT22;36966;48.064;-0.792;2023-07-20T09:07:07;24.40;50.30
50955;DHT22;36966;48.064;-0.792;2023-07-20T09:09:29;24.40;50.30
50955;DHT22;36966;48.064;-0.792;2023-07-20T09:11:51;24.40;50.30
50955;DHT22;36966;48.064;-0.792;2023-07-20T09:14:10;24.50;50.20
50955;DHT22;36966;48.064;-0.792;2023-07-20T09:16:30;24.50;50.20
50955;DHT22;36966;48.064;-0.792;2023-07-20T09:18:50;24.50;50.20
50955;DHT22;36966;48.064;-0.792;2023-07-20T09:21:09;24.50;50.10
50955;DHT22;36966;48.064;-0.792;2023-07-20T09:23:32;24.50;50.10
50955;DHT22;36966;48.064;-0.792;2023-07-20T09:25:52;24.50;50.20
50955;DHT22;36966;48.064;-0.792;2023-07-20T09:28:12;24.50;50.10
50955;DHT22;36966;48.064;-0.792;2023-07-20T09:30:31;24.50;50.10
50955;DHT22;36966;48.064;-0.792;2023-07-20T09:32:51;24.60;50.20
50955;DHT22;36966;48.064;-0.792;2023-07-20T09:35:17;24.50;50.10
50955;DHT22;36966;48.064;-0.792;2023-07-20T09:37:37;24.50;50.10
50955;DHT22;36966;48.064;-0.792;2023-07-20T09:39:56;24.50;50.10
50955;DHT22;36966;48.064;-0.792;2023-07-20T09:42:15;24.50;50.10
50955;DHT22;36966;48.064;-0.792;2023-07-20T09:44:35;24.60;50.10
50955;DHT22;36966;48.064;-0.792;2023-07-20T09:46:54;24.60;50.10
50955;DHT22;36966;48.064;-0.792;2023-07-20T09:49:15;24.50;50.20
50955;DHT22;36966;48.064;-0.792;2023-07-20T09:51:36;24.50;50.10
50955;DHT22;36966;48.064;-0.792;2023-07-20T09:53:56;24.50;50.10
50955;DHT22;36966;48.064;-0.792;2023-07-20T09:56:16;24.50;50.00
50955;DHT22;36966;48.064;-0.792;2023-07-20T09:58:49;24.50;50.10
50955;DHT22;36966;48.064;-0.792;2023-07-20T10:01:08;24.50;50.10
50955;DHT22;36966;48.064;-0.792;2023-07-20T10:03:29;24.50;50.00
50955;DHT22;36966;48.064;-0.792;2023-07-20T10:05:56;24.50;50.10
50955;DHT22;36966;48.064;-0.792;2023-07-20T10:08:16;24.60;50.10
50955;DHT22;36966;48.064;-0.792;2023-07-20T10:10:35;24.60;50.00
50955;DHT22;36966;48.064;-0.792;2023-07-20T10:12:55;24.60;50.10
50955;DHT22;36966;48.064;-0.792;2023-07-20T10:15:23;24.70;50.00
50955;DHT22;36966;48.064;-0.792;2023-07-20T10:17:46;24.70;49.90
50955;DHT22;36966;48.064;-0.792;2023-07-20T10:20:08;24.70;49.90
50955;DHT22;36966;48.064;-0.792;2023-07-20T10:22:29;24.70;49.80
50955;DHT22;36966;48.064;-0.792;2023-07-20T10:24:50;24.80;49.70
50955;DHT22;36966;48.064;-0.792;2023-07-20T10:27:13;24.70;49.70
50955;DHT22;36966;48.064;-0.792;2023-07-20T10:29:33;24.70;49.70
50955;DHT22;36966;48.064;-0.792;2023-07-20T10:31:53;24.80;49.60
50955;DHT22;36966;48.064;-0.792;2023-07-20T10:34:13;24.80;49.50
50955;DHT22;36966;48.064;-0.792;2023-07-20T10:36:32;24.80;49.40
50955;DHT22;36966;48.064;-0.792;2023-07-20T10:38:55;24.80;49.40
50955;DHT22;36966;48.064;-0.792;2023-07-20T10:41:16;24.70;49.40
50955;DHT22;36966;48.064;-0.792;2023-07-20T10:43:36;24.70;49.40
50955;DHT22;36966;48.064;-0.792;2023-07-20T10:45:55;24.80;49.40
50955;DHT22;36966;48.064;-0.792;2023-07-20T10:48:15;24.80;49.40
50955;DHT22;36966;48.064;-0.792;2023-07-20T10:50:35;24.90;49.30
50955;DHT22;36966;48.064;-0.792;2023-07-20T10:55:43;24.90;49.20
50955;DHT22;36966;48.064;-0.792;2023-07-20T10:58:13;25.00;49.10
50955;DHT22;36966;48.064;-0.792;2023-07-20T11:00:34;25.10;48.90
50955;DHT22;36966;48.064;-0.792;2023-07-20T11:02:53;25.20;48.70
50955;DHT22;36966;48.064;-0.792;2023-07-20T11:05:33;25.20;48.60
50955;DHT22;36966;48.064;-0.792;2023-07-20T11:07:56;25.20;48.30
50955;DHT22;36966;48.064;-0.792;2023-07-20T11:10:15;25.20;48.40
50955;DHT22;36966;48.064;-0.792;2023-07-20T11:12:35;25.20;48.40
50955;DHT22;36966;48.064;-0.792;2023-07-20T11:14:55;25.20;48.40
50955;DHT22;36966;48.064;-0.792;2023-07-20T11:17:15;25.20;48.40
50955;DHT22;36966;48.064;-0.792;2023-07-20T11:19:37;25.20;48.40
50955;DHT22;36966;48.064;-0.792;2023-07-20T11:21:58;25.20;48.40
50955;DHT22;36966;48.064;-0.792;2023-07-20T11:24:17;25.20;48.20
50955;DHT22;36966;48.064;-0.792;2023-07-20T11:27:10;25.20;48.20
50955;DHT22;36966;48.064;-0.792;2023-07-20T11:29:23;25.20;48.30
50955;DHT22;36966;48.064;-0.792;2023-07-20T11:31:44;25.20;48.30
50955;DHT22;36966;48.064;-0.792;2023-07-20T11:34:04;25.20;48.20
50955;DHT22;36966;48.064;-0.792;2023-07-20T11:36:23;25.20;47.80
50955;DHT22;36966;48.064;-0.792;2023-07-20T11:38:42;25.30;47.50
50955;DHT22;36966;48.064;-0.792;2023-07-20T11:41:02;25.30;47.40
50955;DHT22;36966;48.064;-0.792;2023-07-20T11:43:22;25.30;47.20
50955;DHT22;36966;48.064;-0.792;2023-07-20T11:45:43;25.30;47.40
50955;DHT22;36966;48.064;-0.792;2023-07-20T11:48:03;25.30;47.50
50955;DHT22;36966;48.064;-0.792;2023-07-20T11:50:22;25.30;47.60
50955;DHT22;36966;48.064;-0.792;2023-07-20T11:52:41;25.30;47.50
50955;DHT22;36966;48.064;-0.792;2023-07-20T11:55:01;25.30;47.70
50955;DHT22;36966;48.064;-0.792;2023-07-20T11:57:20;25.30;47.60
50955;DHT22;36966;48.064;-0.792;2023-07-20T11:59:40;25.20;47.60
50955;DHT22;36966;48.064;-0.792;2023-07-20T12:02:11;25.20;47.70
50955;DHT22;36966;48.064;-0.792;2023-07-20T12:04:31;25.20;47.70
50955;DHT22;36966;48.064;-0.792;2023-07-20T12:06:52;25.20;47.70
50955;DHT22;36966;48.064;-0.792;2023-07-20T12:09:15;25.20;47.60
50955;DHT22;36966;48.064;-0.792;2023-07-20T12:11:36;25.10;47.60
50955;DHT22;36966;48.064;-0.792;2023-07-20T12:13:57;25.10;47.70
50955;DHT22;36966;48.064;-0.792;2023-07-20T12:16:16;25.10;47.70
50955;DHT22;36966;48.064;-0.792;2023-07-20T12:18:36;25.10;47.80
50955;DHT22;36966;48.064;-0.792;2023-07-20T12:20:58;25.10;47.90
50955;DHT22;36966;48.064;-0.792;2023-07-20T12:23:18;25.10;47.90
50955;DHT22;36966;48.064;-0.792;2023-07-20T12:25:41;25.10;47.90
50955;DHT22;36966;48.064;-0.792;2023-07-20T12:28:01;25.10;47.90
50955;DHT22;36966;48.064;-0.792;2023-07-20T12:30:21;25.00;47.80
50955;DHT22;36966;48.064;-0.792;2023-07-20T12:32:41;25.00;47.80
50955;DHT22;36966;48.064;-0.792;2023-07-20T12:35:00;25.10;48.00
50955;DHT22;36966;48.064;-0.792;2023-07-20T12:37:19;25.00;47.90
50955;DHT22;36966;48.064;-0.792;2023-07-20T12:39:38;25.00;48.00
50955;DHT22;36966;48.064;-0.792;2023-07-20T12:41:59;25.00;48.00
50955;DHT22;36966;48.064;-0.792;2023-07-20T12:44:19;25.00;48.00
50955;DHT22;36966;48.064;-0.792;2023-07-20T12:46:38;25.00;47.90
50955;DHT22;36966;48.064;-0.792;2023-07-20T12:48:57;25.00;47.70
50955;DHT22;36966;48.064;-0.792;2023-07-20T12:51:16;25.10;47.50
50955;DHT22;36966;48.064;-0.792;2023-07-20T12:53:37;25.10;47.50
50955;DHT22;36966;48.064;-0.792;2023-07-20T12:55:56;25.10;47.10
50955;DHT22;36966;48.064;-0.792;2023-07-20T12:58:16;25.10;47.20
50955;DHT22;36966;48.064;-0.792;2023-07-20T13:00:35;25.10;47.30
50955;DHT22;36966;48.064;-0.792;2023-07-20T13:02:54;25.10;47.40
50955;DHT22;36966;48.064;-0.792;2023-07-20T13:05:13;25.10;47.40
50955;DHT22;36966;48.064;-0.792;2023-07-20T13:07:39;25.10;47.30
50955;DHT22;36966;48.064;-0.792;2023-07-20T13:09:58;25.10;47.40
50955;DHT22;36966;48.064;-0.792;2023-07-20T13:12:19;25.10;47.40
50955;DHT22;36966;48.064;-0.792;2023-07-20T13:14:38;25.10;47.40
50955;DHT22;36966;48.064;-0.792;2023-07-20T13:16:58;25.10;47.50
50955;DHT22;36966;48.064;-0.792;2023-07-20T13:19:20;25.10;47.50
50955;DHT22;36966;48.064;-0.792;2023-07-20T13:21:40;25.10;47.50
50955;DHT22;36966;48.064;-0.792;2023-07-20T13:23:59;25.10;47.40
50955;DHT22;36966;48.064;-0.792;2023-07-20T13:26:18;25.10;47.40
50955;DHT22;36966;48.064;-0.792;2023-07-20T13:28:37;25.10;47.50
50955;DHT22;36966;48.064;-0.792;2023-07-20T13:30:57;25.10;47.50
50955;DHT22;36966;48.064;-0.792;2023-07-20T13:33:16;25.10;47.40
50955;DHT22;36966;48.064;-0.792;2023-07-20T13:35:35;25.10;47.40
50955;DHT22;36966;48.064;-0.792;2023-07-20T13:37:55;25.10;47.20
50955;DHT22;36966;48.064;-0.792;2023-07-20T13:40:14;25.10;47.20
50955;DHT22;36966;48.064;-0.792;2023-07-20T13:42:35;25.10;47.20
50955;DHT22;36966;48.064;-0.792;2023-07-20T13:44:54;25.10;47.20
50955;DHT22;36966;48.064;-0.792;2023-07-20T13:47:14;25.10;47.30
50955;DHT22;36966;48.064;-0.792;2023-07-20T13:49:33;25.10;47.40
50955;DHT22;36966;48.064;-0.792;2023-07-20T13:51:53;25.10;47.40
50955;DHT22;36966;48.064;-0.792;2023-07-20T13:54:12;25.20;47.20
50955;DHT22;36966;48.064;-0.792;2023-07-20T13:56:31;25.10;47.40
50955;DHT22;36966;48.064;-0.792;2023-07-20T13:58:50;25.10;47.40
50955;DHT22;36966;48.064;-0.792;2023-07-20T14:01:10;25.10;47.40
50955;DHT22;36966;48.064;-0.792;2023-07-20T14:03:29;25.10;47.40
50955;DHT22;36966;48.064;-0.792;2023-07-20T14:05:48;25.20;47.40
50955;DHT22;36966;48.064;-0.792;2023-07-20T14:08:08;25.20;47.40
50955;DHT22;36966;48.064;-0.792;2023-07-20T14:10:28;25.20;47.40
50955;DHT22;36966;48.064;-0.792;2023-07-20T14:12:47;25.10;47.40
50955;DHT22;36966;48.064;-0.792;2023-07-20T14:15:07;25.10;47.40
50955;DHT22;36966;48.064;-0.792;2023-07-20T14:17:26;25.20;47.30
50955;DHT22;36966;48.064;-0.792;2023-07-20T14:19:45;25.10;47.30
50955;DHT22;36966;48.064;-0.792;2023-07-20T14:22:04;25.20;47.40
50955;DHT22;36966;48.064;-0.792;2023-07-20T14:24:24;25.20;47.30
50955;DHT22;36966;48.064;-0.792;2023-07-20T14:26:43;25.20;47.30
50955;DHT22;36966;48.064;-0.792;2023-07-20T14:29:02;25.20;47.30
50955;DHT22;36966;48.064;-0.792;2023-07-20T14:31:22;25.20;47.10
50955;DHT22;36966;48.064;-0.792;2023-07-20T14:33:41;25.10;47.20
50955;DHT22;36966;48.064;-0.792;2023-07-20T14:36:01;25.10;47.20
50955;DHT22;36966;48.064;-0.792;2023-07-20T14:38:20;25.10;47.10
50955;DHT22;36966;48.064;-0.792;2023-07-20T14:40:39;25.10;46.90
50955;DHT22;36966;48.064;-0.792;2023-07-20T14:42:59;25.10;47.10